Time;durP1;ratioP1;P1;durP2;ratioP2;P2;SDS_P1;SDS_P2;PMS_P1;PMS_P2;Temp;Humidity;BMP_temperature;BMP_pressure;BME280_temperature;BME280_humidity;BME280_pressure;Samples;Min_cycle;Max_cycle;Signal;HPM_P1;HPM_P2
2024/03/22 00:02:11;;;;;;;46.33;28.13;;;;;;;9.74;100.00;69480.91;5087391;28;20532;-55
2024/03/22 00:04:37;;;;;;;48.70;27.40;;;;;;;9.77;100.00;69484.41;5087239;28;20044;-52
2024/03/22 00:07:05;;;;;;;46.08;26.20;;;;;;;9.76;100.00;69480.63;5086240;28;20495;-52
2024/03/22 00:09:31;;;;;;;43.63;25.42;;;;;;;9.76;100.00;69485.84;5087340;28;20044;-53
2024/03/22 00:11:58;;;;;;;46.90;26.52;;;;;;;9.78;100.00;69490.78;5088153;28;20036;-52
2024/03/22 00:14:27;;;;;;;45.25;25.95;;;;;;;9.78;100.00;69485.56;5090664;28;20051;-53
2024/03/22 00:16:54;;;;;;;50.70;28.42;;;;;;;9.81;100.00;69489.06;5090334;28;20043;-52
2024/03/22 00:19:22;;;;;;;45.30;26.85;;;;;;;9.82;100.00;69492.84;5090391;28;20040;-51
2024/03/22 00:21:49;;;;;;;51.28;28.98;;;;;;;9.86;100.00;69491.69;5089849;28;20051;-52
2024/03/22 00:24:15;;;;;;;44.60;24.77;;;;;;;9.87;100.00;69496.06;5086851;28;20093;-53
2024/03/22 00:26:42;;;;;;;47.50;27.50;;;;;;;9.90;100.00;69504.19;5070534;28;20058;-51
2024/03/22 00:29:08;;;;;;;45.28;25.15;;;;;;;9.93;100.00;69497.28;5089475;28;20475;-53
2024/03/22 00:31:35;;;;;;;51.00;27.83;;;;;;;9.94;100.00;69504.22;5090018;28;20036;-54
2024/03/22 00:34:01;;;;;;;49.00;28.10;;;;;;;9.95;100.00;69505.41;5090122;28;20043;-51
2024/03/22 00:36:30;;;;;;;49.10;28.58;;;;;;;9.97;100.00;69501.94;5090124;28;20055;-51
2024/03/22 00:38:57;;;;;;;47.90;27.58;;;;;;;9.97;100.00;69502.50;5090211;28;20039;-51
2024/03/22 00:41:24;;;;;;;49.47;28.45;;;;;;;10.01;100.00;69509.22;5090215;28;20040;-50
2024/03/22 00:43:50;;;;;;;49.88;26.88;;;;;;;10.05;100.00;69513.28;5088064;28;20047;-53
2024/03/22 00:46:17;;;;;;;50.40;28.35;;;;;;;10.07;100.00;69518.22;5087002;28;20410;-52
2024/03/22 00:48:43;;;;;;;47.80;27.88;;;;;;;10.09;100.00;69523.75;5087073;28;20510;-50
2024/03/22 00:51:10;;;;;;;49.65;27.73;;;;;;;10.11;100.00;69522.91;5086294;28;20054;-51
2024/03/22 00:53:38;;;;;;;51.22;28.55;;;;;;;10.11;100.00;69523.47;5088861;28;20040;-52
2024/03/22 00:56:06;;;;;;;52.17;28.98;;;;;;;10.12;100.00;69524.66;5086426;28;20093;-55
2024/03/22 00:58:32;;;;;;;48.60;27.23;;;;;;;10.15;100.00;69524.97;5088994;28;20418;-50
2024/03/22 01:00:59;;;;;;;51.55;26.83;;;;;;;10.14;100.00;69527.00;5072873;28;20101;-52
2024/03/22 01:03:25;;;;;;;55.78;28.92;;;;;;;10.15;100.00;69525.53;5087349;28;20043;-54
2024/03/22 01:05:52;;;;;;;49.15;27.15;;;;;;;10.17;100.00;69527.31;5085898;28;20036;-54
2024/03/22 01:08:18;;;;;;;51.08;27.70;;;;;;;10.21;100.00;69529.34;5089833;28;20414;-54
2024/03/22 01:10:47;;;;;;;52.25;28.50;;;;;;;10.26;100.00;69540.41;5089987;28;20506;-52
2024/03/22 01:13:13;;;;;;;51.25;29.08;;;;;;;10.23;100.00;69536.31;5087367;28;20405;-50
2024/03/22 01:15:40;;;;;;;54.20;28.70;;;;;;;10.21;100.00;69534.56;5086653;28;20055;-52
2024/03/22 01:18:06;;;;;;;53.70;28.60;;;;;;;10.22;100.00;69533.13;5086469;28;20403;-50
2024/03/22 01:20:33;;;;;;;52.85;28.52;;;;;;;10.20;100.00;69535.41;5087618;28;20040;-53
2024/03/22 01:23:02;;;;;;;54.10;28.55;;;;;;;10.19;100.00;69532.22;5073285;28;20048;-51
2024/03/22 01:25:29;;;;;;;53.17;27.85;;;;;;;10.19;100.00;69529.63;5087761;28;20063;-53
2024/03/22 01:27:56;;;;;;;51.42;29.17;;;;;;;10.19;100.00;69529.06;5086561;28;20048;-50
2024/03/22 01:30:28;;;;;;;53.63;29.27;;;;;;;10.18;100.00;69531.06;5069680;28;20048;-53
2024/03/22 01:32:54;;;;;;;52.30;28.85;;;;;;;10.18;100.00;69525.28;5087316;28;20353;-52
2024/03/22 01:35:21;;;;;;;50.38;28.27;;;;;;;10.18;100.00;69528.44;5087418;28;20044;-53
2024/03/22 01:37:47;;;;;;;53.15;28.15;;;;;;;10.18;100.00;69531.06;5086650;28;20036;-51
2024/03/22 01:40:15;;;;;;;52.38;29.35;;;;;;;10.17;100.00;69532.50;5088885;28;20044;-53
2024/03/22 01:42:41;;;;;;;51.33;28.95;;;;;;;10.15;100.00;69530.75;5086433;28;20449;-53
2024/03/22 01:45:15;;;;;;;51.20;29.25;;;;;;;10.15;100.00;69524.97;5090794;28;20208;-51
2024/03/22 01:47:41;;;;;;;48.95;27.90;;;;;;;10.16;100.00;69526.13;5093011;28;20046;-52
2024/03/22 01:50:11;;;;;;;49.63;26.63;;;;;;;10.18;100.00;69527.88;5093170;28;20052;-53
2024/03/22 01:52:39;;;;;;;52.90;28.73;;;;;;;10.15;100.00;69524.97;5091030;28;20032;-52
2024/03/22 01:55:08;;;;;;;50.65;29.33;;;;;;;10.15;100.00;69525.53;5090031;28;20048;-49
2024/03/22 01:57:34;;;;;;;50.60;28.63;;;;;;;10.13;100.00;69523.22;5090528;28;20038;-50
2024/03/22 02:00:01;;;;;;;49.90;27.75;;;;;;;10.12;100.00;69524.06;5092969;28;20040;-53
2024/03/22 02:02:29;;;;;;;51.25;28.00;;;;;;;10.11;100.00;69520.88;5092942;28;20484;-52
2024/03/22 02:04:57;;;;;;;50.90;27.67;;;;;;;10.11;100.00;69522.91;5073337;28;20059;-52
2024/03/22 02:07:23;;;;;;;47.10;26.45;;;;;;;10.11;100.00;69522.91;5088800;28;20486;-52
2024/03/22 02:09:50;;;;;;;50.60;28.13;;;;;;;10.09;100.00;69520.56;5092084;28;20036;-54
2024/03/22 02:12:16;;;;;;;51.63;28.77;;;;;;;10.08;100.00;69519.41;5092316;28;20040;-49
2024/03/22 02:14:44;;;;;;;50.28;28.20;;;;;;;10.06;100.00;69515.03;5089784;28;20043;-53
2024/03/22 02:17:10;;;;;;;51.33;29.02;;;;;;;10.08;100.00;69517.38;5090781;28;20066;-53
2024/03/22 02:19:38;;;;;;;50.90;29.10;;;;;;;10.06;100.00;69517.06;5092717;28;20040;-51
2024/03/22 02:22:04;;;;;;;51.95;28.00;;;;;;;10.06;100.00;69517.06;5092823;28;20028;-53
2024/03/22 02:24:33;;;;;;;50.03;28.50;;;;;;;10.05;100.00;69515.88;5092344;28;20073;-53
2024/03/22 02:27:00;;;;;;;53.20;30.10;;;;;;;10.04;100.00;69514.75;5089068;28;20191;-53
2024/03/22 02:29:26;;;;;;;51.40;29.27;;;;;;;10.10;100.00;69516.50;5090826;28;20043;-52
2024/03/22 02:31:53;;;;;;;49.28;29.52;;;;;;;10.07;100.00;69518.81;5092390;28;20040;-50
2024/03/22 02:34:19;;;;;;;46.95;28.13;;;;;;;10.06;100.00;69514.44;5089623;28;20036;-52
2024/03/22 02:36:46;;;;;;;48.47;29.05;;;;;;;10.07;100.00;69518.81;5088634;28;20048;-51
2024/03/22 02:39:13;;;;;;;53.88;29.13;;;;;;;10.07;100.00;69515.63;5088786;28;20040;-53
2024/03/22 02:41:41;;;;;;;52.30;27.90;;;;;;;10.07;100.00;69520.84;5072569;28;20044;-51
2024/03/22 02:44:07;;;;;;;47.28;28.83;;;;;;;10.07;100.00;69518.22;5090541;28;20044;-52
2024/03/22 02:46:37;;;;;;;49.05;29.45;;;;;;;10.06;100.00;69517.06;5092201;28;20051;-51
2024/03/22 02:49:03;;;;;;;49.10;29.65;;;;;;;10.08;100.00;69519.41;5091628;28;20048;-52
2024/03/22 02:51:30;;;;;;;51.10;29.52;;;;;;;10.08;100.00;69514.19;5091557;28;20036;-51
2024/03/22 02:53:56;;;;;;;50.63;28.40;;;;;;;10.07;100.00;69515.63;5088412;28;20048;-52
2024/03/22 02:56:23;;;;;;;50.72;28.92;;;;;;;10.07;100.00;69513.59;5072071;28;20060;-53
2024/03/22 02:58:51;;;;;;;50.45;29.80;;;;;;;10.07;100.00;69518.22;5089050;28;20044;-52
2024/03/22 03:01:21;;;;;;;51.75;28.77;;;;;;;10.05;100.00;69515.88;5072476;28;20085;-51
2024/03/22 03:03:47;;;;;;;52.42;30.40;;;;;;;10.06;100.00;69517.06;5088963;28;20040;-52
2024/03/22 03:06:15;;;;;;;51.00;29.65;;;;;;;10.06;100.00;69519.66;5091133;28;20040;-52
2024/03/22 03:08:41;;;;;;;49.70;30.42;;;;;;;10.07;100.00;69515.63;5090971;28;20054;-54
2024/03/22 03:11:08;;;;;;;49.08;29.33;;;;;;;10.05;100.00;69510.66;5088501;28;20433;-52
2024/03/22 03:13:34;;;;;;;51.50;30.33;;;;;;;10.06;100.00;69515.03;5090462;28;20375;-54
2024/03/22 03:16:03;;;;;;;50.05;30.20;;;;;;;10.06;100.00;69519.66;5091599;28;20050;-53
2024/03/22 03:18:29;;;;;;;50.13;29.85;;;;;;;10.06;100.00;69517.06;5091457;28;20046;-52
2024/03/22 03:20:56;;;;;;;50.38;29.83;;;;;;;10.05;100.00;69516.47;5091433;28;20433;-53
2024/03/22 03:23:23;;;;;;;53.08;30.80;;;;;;;10.07;100.00;69516.19;5091694;28;20421;-52
2024/03/22 03:25:53;;;;;;;55.53;31.25;;;;;;;10.04;100.00;69512.13;5091279;28;20112;-51
2024/03/22 03:28:19;;;;;;;50.58;31.58;;;;;;;10.05;100.00;69513.28;5089511;28;20365;-51
2024/03/22 03:30:46;;;;;;;53.05;32.22;;;;;;;10.04;100.00;69514.75;5088417;28;20040;-49
2024/03/22 03:33:13;;;;;;;53.67;30.83;;;;;;;10.01;100.00;69513.81;5090448;28;20044;-53
2024/03/22 03:35:40;;;;;;;53.00;31.27;;;;;;;10.02;100.00;69513.00;5091255;28;20069;-52
2024/03/22 03:38:07;;;;;;;51.65;30.13;;;;;;;10.00;100.00;69510.66;5090890;28;20048;-53
2024/03/22 03:40:34;;;;;;;49.55;30.13;;;;;;;9.97;100.00;69505.13;5090802;28;20051;-50
2024/03/22 03:43:00;;;;;;;52.67;31.15;;;;;;;9.98;100.00;69506.28;5088563;28;20039;-51
2024/03/22 03:45:27;;;;;;;47.03;29.33;;;;;;;9.99;100.00;69509.47;5087767;28;20051;-52
2024/03/22 03:47:54;;;;;;;54.67;30.80;;;;;;;9.99;100.00;69512.09;5087899;28;20491;-53
2024/03/22 03:50:22;;;;;;;49.13;30.38;;;;;;;9.99;100.00;69504.25;5088151;28;20086;-53
2024/03/22 03:52:49;;;;;;;51.88;30.10;;;;;;;9.95;100.00;69504.81;5091111;28;20475;-53
2024/03/22 03:55:16;;;;;;;51.45;30.08;;;;;;;9.96;100.00;69506.56;5091146;28;20120;-50
2024/03/22 03:57:43;;;;;;;51.15;30.67;;;;;;;9.96;100.00;69500.75;5090954;28;20044;-51
2024/03/22 04:00:10;;;;;;;52.13;30.48;;;;;;;9.96;100.00;69506.56;5090787;28;20074;-51
2024/03/22 04:02:37;;;;;;;49.30;30.50;;;;;;;9.96;100.00;69511.78;5073997;28;20036;-52
2024/03/22 04:05:06;;;;;;;49.25;29.73;;;;;;;10.01;100.00;69508.63;5090713;28;20042;-51
2024/03/22 04:07:35;;;;;;;48.72;29.83;;;;;;;10.01;100.00;69511.81;5088546;28;20036;-50
2024/03/22 04:10:02;;;;;;;47.30;30.17;;;;;;;10.04;100.00;69509.53;5087095;28;20036;-53
2024/03/22 04:12:30;;;;;;;54.42;30.33;;;;;;;10.04;100.00;69517.91;5089946;28;20036;-52
2024/03/22 04:14:56;;;;;;;52.60;29.88;;;;;;;10.03;100.00;69514.13;5073640;28;20537;-52
2024/03/22 04:17:23;;;;;;;50.35;30.85;;;;;;;10.01;100.00;69509.22;5090707;28;20052;-52
2024/03/22 04:19:51;;;;;;;47.65;29.15;;;;;;;10.03;100.00;69510.97;5090548;28;20036;-52
2024/03/22 04:22:19;;;;;;;47.58;30.45;;;;;;;10.03;100.00;69516.75;5088780;28;20046;-53
2024/03/22 04:24:46;;;;;;;46.85;29.02;;;;;;;10.04;100.00;69514.75;5086814;28;20055;-52
2024/03/22 04:27:13;;;;;;;47.55;29.60;;;;;;;10.03;100.00;69516.16;5072868;28;20047;-51
2024/03/22 04:29:39;;;;;;;45.97;28.55;;;;;;;10.03;100.00;69510.97;5090253;28;20032;-52
2024/03/22 04:32:07;;;;;;;46.83;28.33;;;;;;;10.04;100.00;69514.75;5089293;28;20547;-53
2024/03/22 04:34:33;;;;;;;45.58;28.23;;;;;;;10.04;100.00;69515.31;5070383;28;20052;-51
2024/03/22 04:37:00;;;;;;;46.08;27.85;;;;;;;10.03;100.00;69514.13;5087611;28;20044;-53
2024/03/22 04:39:30;;;;;;;43.70;26.50;;;;;;;10.02;100.00;69507.78;5090199;28;20040;-52
2024/03/22 04:41:58;;;;;;;42.13;27.05;;;;;;;10.03;100.00;69513.56;5089839;28;20052;-51
2024/03/22 04:44:25;;;;;;;44.38;25.77;;;;;;;10.01;100.00;69508.63;5070299;28;20044;-52
2024/03/22 04:46:52;;;;;;;45.35;26.45;;;;;;;10.01;100.00;69504.00;5086998;28;20055;-53
2024/03/22 04:49:19;;;;;;;40.38;25.88;;;;;;;9.98;100.00;69506.28;5088072;28;20048;-50
2024/03/22 04:51:45;;;;;;;42.20;24.73;;;;;;;9.99;100.00;69509.47;5073101;28;20059;-51
2024/03/22 04:54:12;;;;;;;39.95;25.05;;;;;;;10.02;100.00;69510.38;5089987;28;20506;-53
2024/03/22 04:56:40;;;;;;;37.92;24.77;;;;;;;10.02;100.00;69513.00;5087402;28;20043;-54
2024/03/22 04:59:08;;;;;;;38.88;23.70;;;;;;;10.03;100.00;69510.97;5088252;28;20028;-52
2024/03/22 05:01:34;;;;;;;39.15;23.95;;;;;;;9.98;100.00;69508.91;5090232;28;20055;-53
2024/03/22 05:04:01;;;;;;;36.15;23.15;;;;;;;9.98;100.00;69508.31;5089943;28;20407;-51
2024/03/22 05:06:27;;;;;;;39.00;24.08;;;;;;;9.99;100.00;69506.88;5087231;28;20059;-49
2024/03/22 05:08:57;;;;;;;36.45;23.60;;;;;;;10.00;100.00;69510.06;5086121;28;20048;-48
2024/03/22 05:11:24;;;;;;;35.72;23.58;;;;;;;9.98;100.00;69508.91;5089954;28;20048;-50
2024/03/22 05:13:51;;;;;;;40.55;23.77;;;;;;;9.96;100.00;69503.94;5089369;28;20040;-49
2024/03/22 05:16:19;;;;;;;40.97;25.00;;;;;;;9.94;100.00;69504.22;5089429;28;20040;-48
2024/03/22 05:18:46;;;;;;;39.40;24.63;;;;;;;9.93;100.00;69497.84;5091324;28;20044;-52
2024/03/22 05:21:12;;;;;;;40.40;24.48;;;;;;;9.92;100.00;69501.31;5094068;28;20487;-49
2024/03/22 05:23:39;;;;;;;42.65;25.42;;;;;;;9.94;100.00;69504.22;5093487;28;20475;-48
2024/03/22 05:26:05;;;;;;;37.50;23.98;;;;;;;9.91;100.00;69497.53;5093440;28;20044;-48
2024/03/22 05:28:33;;;;;;;38.63;23.83;;;;;;;9.90;100.00;69496.97;5093581;28;20380;-49
2024/03/22 05:30:59;;;;;;;36.50;22.83;;;;;;;9.92;100.00;69501.88;5093798;28;20108;-51
2024/03/22 05:33:33;;;;;;;35.28;22.67;;;;;;;9.89;100.00;69495.78;5093718;28;20115;-49
2024/03/22 05:35:59;;;;;;;35.00;20.98;;;;;;;9.86;100.00;69494.31;5093368;28;20491;-49
2024/03/22 05:38:26;;;;;;;38.42;22.00;;;;;;;9.88;100.00;69494.63;5093486;28;20052;-52
2024/03/22 05:40:52;;;;;;;35.22;22.70;;;;;;;9.86;100.00;69494.91;5093292;28;20059;-49
2024/03/22 05:43:19;;;;;;;35.38;21.58;;;;;;;9.87;100.00;69496.06;5093194;28;20394;-50
2024/03/22 05:45:45;;;;;;;31.52;19.98;;;;;;;9.81;100.00;69489.06;5093258;28;20040;-50
2024/03/22 05:48:12;;;;;;;30.25;19.77;;;;;;;9.81;100.00;69489.06;5093239;28;20399;-50
2024/03/22 05:50:40;;;;;;;32.97;19.65;;;;;;;9.80;100.00;69487.91;5092914;28;20411;-48
2024/03/22 05:53:07;;;;;;;30.23;19.80;;;;;;;9.80;100.00;69487.91;5076274;28;20055;-48
2024/03/22 05:55:33;;;;;;;32.85;20.80;;;;;;;9.74;100.00;69481.47;5093190;28;20040;-48
2024/03/22 05:58:00;;;;;;;32.05;18.95;;;;;;;9.75;100.00;69480.03;5092988;28;20133;-48
2024/03/22 06:00:27;;;;;;;31.05;19.88;;;;;;;9.72;100.00;69479.16;5090741;28;20940;-47
2024/03/22 06:02:54;;;;;;;29.10;19.20;;;;;;;9.72;100.00;69479.16;5072866;28;20048;-46
2024/03/22 06:05:20;;;;;;;29.70;18.85;;;;;;;9.76;100.00;69478.00;5092522;28;20044;-46
2024/03/22 06:07:49;;;;;;;31.48;19.45;;;;;;;9.75;100.00;69482.66;5092742;28;20036;-46
2024/03/22 06:10:16;;;;;;;28.90;18.77;;;;;;;9.77;100.00;69479.75;5092568;28;20067;-47
2024/03/22 06:12:44;;;;;;;29.33;18.67;;;;;;;9.76;100.00;69483.22;5092776;28;20047;-46
2024/03/22 06:15:10;;;;;;;27.95;18.10;;;;;;;9.74;100.00;69481.47;5092816;28;20040;-46
2024/03/22 06:17:37;;;;;;;30.65;19.35;;;;;;;9.73;100.00;69479.72;5092625;28;20582;-46
2024/03/22 06:20:05;;;;;;;30.85;18.20;;;;;;;9.73;100.00;69477.69;5092355;28;20174;-45
2024/03/22 06:22:32;;;;;;;33.40;18.58;;;;;;;9.75;100.00;69476.88;5092590;28;20044;-45
2024/03/22 06:24:59;;;;;;;31.58;18.67;;;;;;;9.73;100.00;69475.09;5092616;28;20487;-46
2024/03/22 06:27:27;;;;;;;29.98;19.30;;;;;;;9.71;100.00;69474.81;5092608;28;20444;-46
2024/03/22 06:29:56;;;;;;;32.03;18.50;;;;;;;9.71;100.00;69477.41;5091622;28;20426;-47
2024/03/22 06:32:23;;;;;;;29.50;18.48;;;;;;;9.73;100.00;69477.69;5091707;28;20131;-46
2024/03/22 06:34:49;;;;;;;30.90;19.98;;;;;;;9.75;100.00;69482.66;5091905;28;20528;-48
2024/03/22 06:37:17;;;;;;;30.63;19.52;;;;;;;9.76;100.00;69483.81;5092211;28;20518;-47
2024/03/22 06:39:43;;;;;;;32.40;18.15;;;;;;;9.75;100.00;69480.03;5092131;28;20040;-47
2024/03/22 06:42:11;;;;;;;29.58;17.85;;;;;;;9.73;100.00;69474.53;5091989;28;20658;-46
2024/03/22 06:44:37;;;;;;;32.22;19.05;;;;;;;9.71;100.00;69474.81;5092286;28;20036;-50
2024/03/22 06:47:05;;;;;;;29.60;18.13;;;;;;;9.72;100.00;69478.56;5091978;28;20051;-49
2024/03/22 06:49:31;;;;;;;29.52;18.20;;;;;;;9.74;100.00;69478.88;5074900;28;20054;-46
2024/03/22 06:51:58;;;;;;;28.80;17.35;;;;;;;9.75;100.00;69482.06;5092475;28;20047;-46
2024/03/22 06:54:28;;;;;;;28.05;17.67;;;;;;;9.80;100.00;69485.28;5092165;28;20052;-48
2024/03/22 06:56:55;;;;;;;29.48;17.77;;;;;;;9.80;100.00;69482.69;5091790;28;20074;-50
2024/03/22 06:59:22;;;;;;;28.77;17.33;;;;;;;9.84;100.00;69495.16;5074697;28;20052;-48
2024/03/22 07:01:49;;;;;;;28.08;17.35;;;;;;;9.87;100.00;69496.06;5088570;28;20467;-50
2024/03/22 07:04:18;;;;;;;26.67;16.13;;;;;;;9.88;100.00;69497.22;5089556;28;20044;-51
2024/03/22 07:06:45;;;;;;;25.88;17.13;;;;;;;9.88;100.00;69494.63;5091660;28;20044;-45
2024/03/22 07:09:11;;;;;;;26.73;17.13;;;;;;;9.91;100.00;69495.53;5091363;28;20082;-46
2024/03/22 07:11:38;;;;;;;29.42;17.08;;;;;;;9.93;100.00;69503.06;5091387;28;20032;-46
2024/03/22 07:14:04;;;;;;;28.02;18.20;;;;;;;9.96;100.00;69506.56;5074472;28;20115;-48
2024/03/22 07:16:36;;;;;;;26.13;17.17;;;;;;;9.98;100.00;69510.94;5091695;28;20044;-46
2024/03/22 07:19:03;;;;;;;28.50;18.23;;;;;;;10.00;100.00;69510.66;5090062;28;20544;-49
2024/03/22 07:21:30;;;;;;;28.30;17.05;;;;;;;10.02;100.00;69512.41;5087205;28;20063;-45
2024/03/22 07:23:57;;;;;;;27.45;17.35;;;;;;;10.01;100.00;69513.81;5088144;28;20071;-49
2024/03/22 07:26:24;;;;;;;27.15;17.15;;;;;;;10.02;100.00;69513.00;5090817;28;20499;-47
2024/03/22 07:28:50;;;;;;;25.95;16.67;;;;;;;10.09;100.00;69515.94;5091135;28;20582;-47
2024/03/22 07:31:17;;;;;;;30.02;18.08;;;;;;;10.15;100.00;69525.53;5091275;28;20083;-47
2024/03/22 07:33:44;;;;;;;27.20;17.45;;;;;;;10.21;100.00;69531.97;5091422;28;20536;-46
2024/03/22 07:36:12;;;;;;;27.65;16.88;;;;;;;10.28;100.00;69540.13;5088330;28;20089;-48
2024/03/22 07:38:38;;;;;;;28.13;17.80;;;;;;;10.34;100.00;69548.56;5088192;28;20048;-48
2024/03/22 07:41:05;;;;;;;26.38;17.35;;;;;;;10.39;100.00;69554.41;5089252;28;20044;-46
2024/03/22 07:43:31;;;;;;;26.42;16.98;;;;;;;10.41;100.00;69556.75;5091344;28;20040;-50
2024/03/22 07:45:58;;;;;;;27.85;18.50;;;;;;;10.43;100.00;69556.47;5091199;28;20125;-50
2024/03/22 07:48:24;;;;;;;28.58;17.95;;;;;;;10.48;100.00;69565.53;5091014;28;20387;-49
2024/03/22 07:50:58;;;;;;;27.58;18.02;;;;;;;10.49;100.00;69563.50;5090660;28;20048;-47
2024/03/22 07:53:24;;;;;;;26.80;16.75;;;;;;;10.49;100.00;69566.09;5091015;28;20038;-46
2024/03/22 07:55:52;;;;;;;26.73;17.33;;;;;;;10.51;100.00;69563.19;5090977;28;20055;-48
2024/03/22 07:58:19;;;;;;;26.10;17.20;;;;;;;10.55;100.00;69569.91;5074016;28;20040;-49
2024/03/22 08:00:47;;;;;;;24.77;16.85;;;;;;;10.57;100.00;69575.44;5090807;28;20092;-47
2024/03/22 08:03:15;;;;;;;29.38;19.10;;;;;;;10.55;100.00;69570.50;5090845;28;20388;-48
2024/03/22 08:05:42;;;;;;;27.20;17.98;;;;;;;10.54;100.00;69571.94;5086899;28;20044;-48
2024/03/22 08:08:10;;;;;;;30.20;18.92;;;;;;;10.58;100.00;69576.00;5087078;28;20093;-47
2024/03/22 08:10:37;;;;;;;30.95;18.92;;;;;;;10.54;100.00;69571.94;5090227;28;20044;-47
2024/03/22 08:13:03;;;;;;;31.17;18.52;;;;;;;10.55;100.00;69572.50;5073143;28;20142;-51
2024/03/22 08:15:31;;;;;;;31.00;18.20;;;;;;;10.57;100.00;69572.81;5090583;28;20078;-47
2024/03/22 08:17:57;;;;;;;28.10;18.17;;;;;;;10.59;100.00;69575.16;5090359;28;20052;-47
2024/03/22 08:20:24;;;;;;;30.75;18.27;;;;;;;10.64;100.00;69583.03;5090400;28;20050;-49
2024/03/22 08:22:51;;;;;;;27.10;17.27;;;;;;;10.64;100.00;69580.41;5090232;28;20036;-50
2024/03/22 08:25:20;;;;;;;26.55;17.50;;;;;;;10.69;100.00;69588.25;5090213;28;20168;-50
2024/03/22 08:27:46;;;;;;;30.17;19.80;;;;;;;10.74;100.00;69591.50;5090426;28;20054;-48
2024/03/22 08:30:14;;;;;;;31.58;19.08;;;;;;;10.72;100.00;69589.19;5090380;28;20040;-51
2024/03/22 08:32:41;;;;;;;29.23;18.50;;;;;;;10.74;100.00;69594.09;5090295;28;20402;-51
2024/03/22 08:35:08;;;;;;;28.05;17.85;;;;;;;10.73;100.00;69590.94;5090241;28;20051;-51
2024/03/22 08:37:34;;;;;;;28.35;18.65;;;;;;;10.80;100.00;69601.13;5090491;28;20060;-49
2024/03/22 08:40:04;;;;;;;30.48;19.10;;;;;;;10.79;100.00;69597.34;5073607;28;20123;-49
2024/03/22 08:42:32;;;;;;;29.15;19.58;;;;;;;10.77;100.00;69598.19;5090206;28;20444;-52
2024/03/22 08:44:59;;;;;;;32.35;19.48;;;;;;;10.76;100.00;69593.84;5090366;28;20044;-49
2024/03/22 08:47:26;;;;;;;30.15;19.90;;;;;;;10.82;100.00;69601.44;5073400;28;20693;-47
2024/03/22 08:49:53;;;;;;;31.92;21.02;;;;;;;10.83;100.00;69602.00;5089622;28;20052;-49
2024/03/22 08:52:19;;;;;;;35.78;20.60;;;;;;;10.85;100.00;69604.34;5092637;28;20048;-47
2024/03/22 08:54:46;;;;;;;35.60;21.55;;;;;;;10.82;100.00;69603.44;5096919;28;20085;-54
2024/03/22 08:57:12;;;;;;;34.47;22.25;;;;;;;10.87;100.00;69608.72;5095376;28;20413;-52
2024/03/22 08:59:41;;;;;;;34.70;23.20;;;;;;;10.86;100.00;69610.72;5094417;28;20036;-47
2024/03/22 09:02:07;;;;;;;35.90;23.45;;;;;;;10.85;100.00;69604.34;5095516;28;20044;-48
2024/03/22 09:04:34;;;;;;;39.10;24.27;;;;;;;10.83;100.00;69604.63;5096760;28;20460;-52
2024/03/22 09:07:00;;;;;;;38.67;24.80;;;;;;;10.79;100.00;69600.53;5096705;28;20044;-50
2024/03/22 09:09:27;;;;;;;39.80;25.23;;;;;;;10.78;100.00;69596.16;5096519;28;20133;-48
2024/03/22 09:11:54;;;;;;;38.47;25.92;;;;;;;10.79;100.00;69597.34;5096368;28;20503;-47
2024/03/22 09:14:21;;;;;;;39.78;25.27;;;;;;;10.77;100.00;69592.38;5096657;28;20070;-45
2024/03/22 09:16:49;;;;;;;37.45;23.92;;;;;;;10.78;100.00;69596.75;5096445;28;20083;-49
2024/03/22 09:19:16;;;;;;;37.80;23.02;;;;;;;10.75;100.00;69590.06;5096498;28;20044;-47
2024/03/22 09:21:42;;;;;;;36.03;23.13;;;;;;;10.70;100.00;69586.84;5096733;28;20048;-50
2024/03/22 09:24:10;;;;;;;39.10;23.10;;;;;;;10.70;100.00;69586.84;5096826;28;20048;-47
2024/03/22 09:26:36;;;;;;;37.58;22.65;;;;;;;10.69;100.00;69588.88;5096670;28;20670;-49
2024/03/22 09:29:04;;;;;;;37.17;23.00;;;;;;;10.64;100.00;69581.00;5077569;28;20433;-51
2024/03/22 09:31:30;;;;;;;37.92;24.75;;;;;;;10.56;100.00;69571.66;5093240;28;20370;-48
2024/03/22 09:33:59;;;;;;;38.80;23.38;;;;;;;10.51;100.00;69568.41;5096509;28;20437;-49
2024/03/22 09:36:25;;;;;;;37.95;23.13;;;;;;;10.50;100.00;69564.66;5096677;28;20040;-50
2024/03/22 09:38:52;;;;;;;36.45;23.67;;;;;;;10.46;100.00;69560.56;5096638;28;20424;-50
2024/03/22 09:41:24;;;;;;;36.28;23.58;;;;;;;10.43;100.00;69559.09;5096200;28;20506;-49
2024/03/22 09:43:55;;;;;;;41.47;25.53;;;;;;;10.41;100.00;69556.75;5096244;28;20047;-48
2024/03/22 09:46:22;;;;;;;40.97;25.38;;;;;;;10.38;100.00;69551.22;5096385;28;20069;-48
2024/03/22 09:48:50;;;;;;;38.85;23.67;;;;;;;10.37;100.00;69552.66;5096174;28;20048;-48
2024/03/22 09:51:19;;;;;;;39.53;23.30;;;;;;;10.38;100.00;69553.28;5094200;28;20051;-48
2024/03/22 09:53:47;;;;;;;35.03;23.05;;;;;;;10.36;100.00;69546.31;5092928;28;20059;-50
2024/03/22 09:56:16;;;;;;;39.65;24.02;;;;;;;10.38;100.00;69550.66;5095420;28;20138;-51
2024/03/22 09:58:42;;;;;;;39.55;24.27;;;;;;;10.38;100.00;69553.84;5079252;28;20495;-48
2024/03/22 10:01:10;;;;;;;36.20;23.23;;;;;;;10.42;100.00;69561.13;5095430;28;20059;-47
2024/03/22 10:03:36;;;;;;;39.03;23.77;;;;;;;10.42;100.00;69552.72;5091730;28;20091;-49
2024/03/22 10:06:06;;;;;;;34.25;22.35;;;;;;;10.44;100.00;69560.25;5088786;28;20044;-48
2024/03/22 10:08:33;;;;;;;33.97;23.38;;;;;;;10.48;100.00;69562.31;5090246;28;20040;-47
2024/03/22 10:11:03;;;;;;;36.20;22.05;;;;;;;10.51;100.00;69562.63;5091844;28;20186;-49
2024/03/22 10:13:29;;;;;;;35.78;22.92;;;;;;;10.53;100.00;69570.75;5092619;28;20036;-48
2024/03/22 10:15:58;;;;;;;34.63;22.00;;;;;;;10.58;100.00;69570.78;5089380;28;20044;-47
2024/03/22 10:18:24;;;;;;;32.88;21.73;;;;;;;10.58;100.00;69570.78;5091432;28;20051;-48
2024/03/22 10:21:00;;;;;;;34.28;21.60;;;;;;;10.56;100.00;69571.06;5092828;28;20559;-47
2024/03/22 10:23:27;;;;;;;34.85;19.92;;;;;;;10.55;100.00;69569.91;5093172;28;20044;-46
2024/03/22 10:25:57;;;;;;;31.10;20.70;;;;;;;10.53;100.00;69568.16;5075835;28;20052;-50
2024/03/22 10:28:24;;;;;;;32.30;21.23;;;;;;;10.53;100.00;69570.75;5092608;28;20054;-51
2024/03/22 10:30:55;;;;;;;30.92;21.45;;;;;;;10.48;100.00;69562.91;5090879;28;20070;-46
2024/03/22 10:33:23;;;;;;;32.33;21.58;;;;;;;10.47;100.00;69556.53;5089407;28;20380;-48
2024/03/22 10:35:53;;;;;;;31.33;20.83;;;;;;;10.53;100.00;69565.53;5090903;28;20062;-50
2024/03/22 10:38:20;;;;;;;32.33;21.15;;;;;;;10.54;100.00;69569.34;5092050;28;20050;-50
2024/03/22 10:40:48;;;;;;;31.38;20.00;;;;;;;10.54;100.00;69577.16;5092405;28;20047;-49
2024/03/22 10:43:17;;;;;;;31.05;20.38;;;;;;;10.52;100.00;69566.97;5092489;28;20115;-48
2024/03/22 10:45:49;;;;;;;32.80;21.60;;;;;;;10.52;100.00;69563.81;5092169;28;20048;-48
2024/03/22 10:48:18;;;;;;;29.80;20.92;;;;;;;10.48;100.00;69559.72;5092322;28;20032;-49
2024/03/22 10:50:45;;;;;;;31.98;21.77;;;;;;;10.51;100.00;69565.81;5091903;28;20063;-49
2024/03/22 10:53:19;;;;;;;32.58;20.50;;;;;;;10.54;100.00;69571.34;5092016;28;20044;-49
2024/03/22 10:55:49;;;;;;;35.45;21.35;;;;;;;10.52;100.00;69569.59;5075365;28;20056;-52
2024/03/22 10:58:18;;;;;;;35.33;21.92;;;;;;;10.51;100.00;69562.63;5092107;28;20036;-49
2024/03/22 11:00:45;;;;;;;35.42;22.38;;;;;;;10.45;100.00;69559.41;5089311;28;20645;-49
2024/03/22 11:03:13;;;;;;;32.88;21.13;;;;;;;10.50;100.00;69564.66;5088408;28;20384;-48
2024/03/22 11:05:46;;;;;;;37.75;21.95;;;;;;;10.56;100.00;69571.06;5090834;28;20044;-49
2024/03/22 11:08:13;;;;;;;34.67;21.92;;;;;;;10.55;100.00;69565.28;5088212;28;20036;-48
2024/03/22 11:10:40;;;;;;;35.30;22.20;;;;;;;10.52;100.00;69563.81;5090072;28;20040;-49
2024/03/22 11:13:08;;;;;;;35.00;21.77;;;;;;;10.46;100.00;69557.38;5091637;28;20359;-48